Pacific - South Coast: Past 24 Hour Conditions

 

West Sea Otter - 46204

06:00 PM PST 21 November 2017Buoy position: 51.23N 128.46W
Disclaimer

This table is a summary of hourly weather conditions for the past 24 hours.
Please note that these observations might not always be representative of weather conditions over their associated marine area.

Date / Time
(PST)
Wind(knots) Wave height(m) Wave period(s) Pressure(kPa) Air tempC) Water tempC)
21 November 2017
18:00 SE 31 gust 39 3.8 8.0 99.7 9 10
17:00 SE 35 gust 45 3.8 8.0 99.6 8 10
16:00 ESE 35 gust 43 3.7 8.0 99.6 8 10
15:00 ESE 31 gust 41 3.2 8.0 99.7 8 10
14:00 E 19 gust 25 3.0 8.0 99.8 7 10
13:00 E 19 gust 23 2.9 7.0 99.9 7 10
12:00 E 19 N/A N/A 100.1 7 N/A
11:00 E 21 gust 27 2.2 8.0 100.3 7 10
10:00 N/A N/A N/A N/A N/A N/A
9:00 E 16 gust 21 1.9 9.0 100.6 8 10
8:00 E 14 gust 18 2.1 8.0 100.7 8 10
7:00 ESE 19 gust 23 2.1 9.0 100.9 8 10
6:00 ESE 21 gust 27 2.1 6.0 101.0 8 10
5:00 ESE 25 gust 33 2.3 6.0 101.1 8 10
4:00 ESE 25 gust 31 2.3 6.0 101.1 8 10
3:00 SE 27 gust 31 2.4 6.0 101.2 8 10
2:00 SE 25 gust 29 2.2 6.0 101.3 8 10
1:00 ESE 23 gust 27 2.1 6.0 101.3 8 10
0:00 ESE 23 gust 27 2.1 5.0 101.3 8 10
20 November 2017
23:00 SE 23 gust 29 2.0 5.0 101.4 8 10
22:00 SE 21 gust 27 1.9 9.0 101.3 8 10
21:00 SE 21 gust 25 2.0 9.0 101.3 8 10
20:00 SE 19 gust 23 1.7 8.0 101.3 8 10
19:00 SE 18 gust 21 1.8 9.0 101.2 8 10
18:00 SE 16 gust 19 1.8 11.0 101.1 8 10

Zoom-in to make a selection

Map of Pacific - South Coast marine weather areas Tsawwassen Ferry Terminal South Nomad - 46036 Sentry Shoal - 46131 South Brooks - 46132 Halibut Bank - 46146 South Moresby - 46147 South Hecate Strait - 46185 West Sea Otter - 46204 La Perouse Bank - 46206 East Dellwood - 46207 Discovery Island Esquimalt Harbour Kelp Reefs Malahat Race Rocks Lightstation Saturna Island Sheringham Point University of Victoria Victoria Gonzales Victoria Int'l Airport Ballenas Islands Campbell River Airport Comox Airport Entrance Island Fanny Island Nanaimo Airport Port Hardy Airport Sisters Islets Estevan Point Sartine Island Solander Island Tofino Airport Grief Point Powell River Airport Sechelt Cape St.James Bella Bella Airport Bella Coola Airport Cathedral Point Herbert Island Point Atkinson Sand Heads Lightstation Vancouver Harbour Vancouver Int'l Airport West Vancouver Port Alberni Howe Sound - Pam Rocks Squamish Airport
Legend:
buoy Buoy
land station Land Station

Pacific - South Coast Area

Another Region

What we are doing

Date modified: